sensor_id;sensor_type;location;lat;lon;timestamp;P1;durP1;ratioP1;P2;durP2;ratioP2
20966;SDS011;10642;50.682;18.510;2024-03-23T00:55:05;1.63;;;1.00;;
20966;SDS011;10642;50.682;18.510;2024-03-23T00:57:31;3.27;;;1.77;;
20966;SDS011;10642;50.682;18.510;2024-03-23T00:59:57;0.60;;;0.47;;
20966;SDS011;10642;50.682;18.510;2024-03-23T01:02:23;5.93;;;1.80;;
20966;SDS011;10642;50.682;18.510;2024-03-23T01:04:49;2.13;;;1.37;;
20966;SDS011;10642;50.682;18.510;2024-03-23T01:07:15;4.53;;;1.70;;
20966;SDS011;10642;50.682;18.510;2024-03-23T01:09:41;1.37;;;0.90;;
20966;SDS011;10642;50.682;18.510;2024-03-23T01:12:07;2.47;;;1.50;;
20966;SDS011;10642;50.682;18.510;2024-03-23T01:14:33;1.40;;;1.30;;
20966;SDS011;10642;50.682;18.510;2024-03-23T01:16:59;5.40;;;1.43;;
20966;SDS011;10642;50.682;18.510;2024-03-23T01:19:25;5.47;;;2.43;;
20966;SDS011;10642;50.682;18.510;2024-03-23T01:21:51;4.30;;;1.23;;
20966;SDS011;10642;50.682;18.510;2024-03-23T01:24:17;1.33;;;0.70;;
20966;SDS011;10642;50.682;18.510;2024-03-23T01:26:43;1.87;;;1.47;;
20966;SDS011;10642;50.682;18.510;2024-03-23T01:29:09;2.63;;;0.63;;
20966;SDS011;10642;50.682;18.510;2024-03-23T01:31:35;4.77;;;2.20;;
20966;SDS011;10642;50.682;18.510;2024-03-23T01:34:01;2.13;;;1.60;;
20966;SDS011;10642;50.682;18.510;2024-03-23T01:36:29;2.30;;;1.23;;
20966;SDS011;10642;50.682;18.510;2024-03-23T01:38:55;4.90;;;1.00;;
20966;SDS011;10642;50.682;18.510;2024-03-23T01:41:21;2.13;;;1.20;;
20966;SDS011;10642;50.682;18.510;2024-03-23T01:43:47;1.23;;;1.00;;
20966;SDS011;10642;50.682;18.510;2024-03-23T01:46:14;1.63;;;1.37;;
20966;SDS011;10642;50.682;18.510;2024-03-23T01:48:39;6.77;;;2.00;;
20966;SDS011;10642;50.682;18.510;2024-03-23T01:51:05;4.23;;;2.03;;
20966;SDS011;10642;50.682;18.510;2024-03-23T01:53:32;0.93;;;0.80;;
20966;SDS011;10642;50.682;18.510;2024-03-23T01:55:58;5.10;;;2.00;;
20966;SDS011;10642;50.682;18.510;2024-03-23T01:58:25;4.20;;;1.10;;
20966;SDS011;10642;50.682;18.510;2024-03-23T02:00:51;1.60;;;1.00;;
20966;SDS011;10642;50.682;18.510;2024-03-23T02:03:24;2.70;;;0.87;;
20966;SDS011;10642;50.682;18.510;2024-03-23T02:05:51;7.23;;;2.33;;
20966;SDS011;10642;50.682;18.510;2024-03-23T02:08:19;1.00;;;0.97;;
20966;SDS011;10642;50.682;18.510;2024-03-23T02:10:45;14.03;;;2.27;;
20966;SDS011;10642;50.682;18.510;2024-03-23T02:13:11;2.30;;;1.00;;
20966;SDS011;10642;50.682;18.510;2024-03-23T02:15:39;4.33;;;1.83;;
20966;SDS011;10642;50.682;18.510;2024-03-23T02:18:06;3.97;;;1.40;;
20966;SDS011;10642;50.682;18.510;2024-03-23T02:20:32;2.50;;;1.47;;
20966;SDS011;10642;50.682;18.510;2024-03-23T02:22:58;2.17;;;1.23;;
20966;SDS011;10642;50.682;18.510;2024-03-23T02:25:24;2.57;;;1.27;;
20966;SDS011;10642;50.682;18.510;2024-03-23T02:27:50;0.57;;;0.37;;
20966;SDS011;10642;50.682;18.510;2024-03-23T02:30:16;2.63;;;1.33;;
20966;SDS011;10642;50.682;18.510;2024-03-23T02:32:43;3.77;;;1.60;;
20966;SDS011;10642;50.682;18.510;2024-03-23T02:35:09;0.47;;;0.40;;
20966;SDS011;10642;50.682;18.510;2024-03-23T02:37:35;2.93;;;0.67;;
20966;SDS011;10642;50.682;18.510;2024-03-23T02:40:01;2.60;;;1.30;;
20966;SDS011;10642;50.682;18.510;2024-03-23T02:42:27;3.80;;;1.10;;
20966;SDS011;10642;50.682;18.510;2024-03-23T02:44:53;1.83;;;1.37;;
20966;SDS011;10642;50.682;18.510;2024-03-23T02:47:19;1.37;;;1.23;;
20966;SDS011;10642;50.682;18.510;2024-03-23T02:49:45;3.07;;;1.73;;
20966;SDS011;10642;50.682;18.510;2024-03-23T02:52:11;0.83;;;0.83;;
20966;SDS011;10642;50.682;18.510;2024-03-23T02:54:37;2.40;;;1.47;;
20966;SDS011;10642;50.682;18.510;2024-03-23T02:57:03;1.37;;;0.83;;
20966;SDS011;10642;50.682;18.510;2024-03-23T02:59:28;3.00;;;1.87;;
20966;SDS011;10642;50.682;18.510;2024-03-23T03:01:54;3.20;;;1.30;;
20966;SDS011;10642;50.682;18.510;2024-03-23T03:04:21;3.83;;;1.40;;
20966;SDS011;10642;50.682;18.510;2024-03-23T03:06:47;2.43;;;1.87;;
20966;SDS011;10642;50.682;18.510;2024-03-23T03:09:13;4.73;;;1.43;;
20966;SDS011;10642;50.682;18.510;2024-03-23T03:11:39;5.17;;;1.67;;
20966;SDS011;10642;50.682;18.510;2024-03-23T03:14:04;1.53;;;1.33;;
20966;SDS011;10642;50.682;18.510;2024-03-23T03:16:32;0.43;;;0.43;;
20966;SDS011;10642;50.682;18.510;2024-03-23T03:18:58;3.83;;;2.20;;
20966;SDS011;10642;50.682;18.510;2024-03-23T03:21:24;1.87;;;1.07;;
20966;SDS011;10642;50.682;18.510;2024-03-23T03:23:50;1.03;;;0.70;;
20966;SDS011;10642;50.682;18.510;2024-03-23T03:26:16;1.83;;;0.83;;
20966;SDS011;10642;50.682;18.510;2024-03-23T03:28:42;2.73;;;1.23;;
20966;SDS011;10642;50.682;18.510;2024-03-23T03:31:09;1.90;;;1.47;;
20966;SDS011;10642;50.682;18.510;2024-03-23T03:33:35;1.37;;;0.53;;
20966;SDS011;10642;50.682;18.510;2024-03-23T03:36:01;1.87;;;1.30;;
20966;SDS011;10642;50.682;18.510;2024-03-23T03:38:27;6.07;;;1.37;;
20966;SDS011;10642;50.682;18.510;2024-03-23T03:40:53;2.30;;;1.57;;
20966;SDS011;10642;50.682;18.510;2024-03-23T03:43:18;0.93;;;0.40;;
20966;SDS011;10642;50.682;18.510;2024-03-23T03:45:51;2.27;;;1.43;;
20966;SDS011;10642;50.682;18.510;2024-03-23T03:48:17;2.03;;;1.33;;
20966;SDS011;10642;50.682;18.510;2024-03-23T03:50:43;1.43;;;1.33;;
20966;SDS011;10642;50.682;18.510;2024-03-23T03:53:09;0.97;;;0.90;;
20966;SDS011;10642;50.682;18.510;2024-03-23T03:55:35;2.60;;;1.13;;
20966;SDS011;10642;50.682;18.510;2024-03-23T03:58:00;1.37;;;1.23;;
20966;SDS011;10642;50.682;18.510;2024-03-23T04:00:26;1.37;;;0.97;;
20966;SDS011;10642;50.682;18.510;2024-03-23T04:02:52;1.40;;;1.17;;
20966;SDS011;10642;50.682;18.510;2024-03-23T04:05:18;3.73;;;1.60;;
20966;SDS011;10642;50.682;18.510;2024-03-23T04:07:45;2.10;;;1.47;;
20966;SDS011;10642;50.682;18.510;2024-03-23T04:10:11;0.93;;;0.67;;
20966;SDS011;10642;50.682;18.510;2024-03-23T04:12:37;2.93;;;1.70;;
20966;SDS011;10642;50.682;18.510;2024-03-23T04:15:03;2.40;;;1.17;;
20966;SDS011;10642;50.682;18.510;2024-03-23T04:17:30;3.10;;;0.90;;
20966;SDS011;10642;50.682;18.510;2024-03-23T04:20:00;1.10;;;0.67;;
20966;SDS011;10642;50.682;18.510;2024-03-23T04:22:26;3.27;;;1.27;;
20966;SDS011;10642;50.682;18.510;2024-03-23T04:24:53;1.33;;;0.97;;
20966;SDS011;10642;50.682;18.510;2024-03-23T04:27:19;6.77;;;0.97;;
20966;SDS011;10642;50.682;18.510;2024-03-23T04:29:48;2.20;;;1.47;;
20966;SDS011;10642;50.682;18.510;2024-03-23T04:32:14;1.10;;;0.70;;
20966;SDS011;10642;50.682;18.510;2024-03-23T04:34:40;1.17;;;0.93;;
20966;SDS011;10642;50.682;18.510;2024-03-23T04:37:06;4.17;;;1.67;;
20966;SDS011;10642;50.682;18.510;2024-03-23T04:39:33;5.17;;;1.20;;
20966;SDS011;10642;50.682;18.510;2024-03-23T04:41:59;2.67;;;1.67;;
20966;SDS011;10642;50.682;18.510;2024-03-23T04:44:24;2.40;;;1.80;;
20966;SDS011;10642;50.682;18.510;2024-03-23T04:46:50;1.47;;;0.93;;
20966;SDS011;10642;50.682;18.510;2024-03-23T04:49:16;0.60;;;0.60;;
20966;SDS011;10642;50.682;18.510;2024-03-23T04:51:42;3.20;;;1.50;;
20966;SDS011;10642;50.682;18.510;2024-03-23T04:54:11;1.47;;;1.10;;
20966;SDS011;10642;50.682;18.510;2024-03-23T04:56:37;0.80;;;0.67;;
20966;SDS011;10642;50.682;18.510;2024-03-23T04:59:03;5.20;;;1.77;;
20966;SDS011;10642;50.682;18.510;2024-03-23T05:01:33;4.10;;;0.97;;
20966;SDS011;10642;50.682;18.510;2024-03-23T05:04:02;0.90;;;0.90;;
20966;SDS011;10642;50.682;18.510;2024-03-23T05:06:28;1.73;;;1.33;;
20966;SDS011;10642;50.682;18.510;2024-03-23T05:08:55;3.20;;;1.33;;
20966;SDS011;10642;50.682;18.510;2024-03-23T05:11:21;2.63;;;1.13;;
20966;SDS011;10642;50.682;18.510;2024-03-23T05:13:47;1.60;;;0.87;;
20966;SDS011;10642;50.682;18.510;2024-03-23T05:16:13;9.87;;;0.97;;
20966;SDS011;10642;50.682;18.510;2024-03-23T05:18:39;2.43;;;1.97;;
20966;SDS011;10642;50.682;18.510;2024-03-23T05:21:05;5.13;;;2.20;;
20966;SDS011;10642;50.682;18.510;2024-03-23T05:23:30;2.10;;;0.87;;
20966;SDS011;10642;50.682;18.510;2024-03-23T05:25:56;0.73;;;0.73;;
20966;SDS011;10642;50.682;18.510;2024-03-23T05:28:22;0.93;;;0.83;;
20966;SDS011;10642;50.682;18.510;2024-03-23T05:30:54;1.23;;;1.13;;
20966;SDS011;10642;50.682;18.510;2024-03-23T05:33:20;2.40;;;1.57;;
20966;SDS011;10642;50.682;18.510;2024-03-23T05:35:47;5.90;;;0.80;;
20966;SDS011;10642;50.682;18.510;2024-03-23T05:38:13;1.67;;;0.83;;
20966;SDS011;10642;50.682;18.510;2024-03-23T05:40:39;0.63;;;0.63;;
20966;SDS011;10642;50.682;18.510;2024-03-23T05:43:08;5.43;;;0.83;;
20966;SDS011;10642;50.682;18.510;2024-03-23T05:45:35;1.20;;;0.57;;
20966;SDS011;10642;50.682;18.510;2024-03-23T05:48:00;0.87;;;0.50;;
20966;SDS011;10642;50.682;18.510;2024-03-23T05:50:26;1.70;;;1.57;;
20966;SDS011;10642;50.682;18.510;2024-03-23T05:52:52;3.23;;;0.93;;
20966;SDS011;10642;50.682;18.510;2024-03-23T05:55:18;1.73;;;0.77;;
20966;SDS011;10642;50.682;18.510;2024-03-23T05:57:44;1.57;;;0.93;;
20966;SDS011;10642;50.682;18.510;2024-03-23T06:00:11;2.40;;;1.10;;
20966;SDS011;10642;50.682;18.510;2024-03-23T06:02:41;1.80;;;0.70;;
20966;SDS011;10642;50.682;18.510;2024-03-23T06:05:12;3.83;;;1.20;;
20966;SDS011;10642;50.682;18.510;2024-03-23T06:07:38;4.03;;;0.50;;
20966;SDS011;10642;50.682;18.510;2024-03-23T06:10:04;2.63;;;1.17;;
20966;SDS011;10642;50.682;18.510;2024-03-23T06:12:31;2.63;;;1.40;;
20966;SDS011;10642;50.682;18.510;2024-03-23T06:14:57;1.40;;;1.20;;
20966;SDS011;10642;50.682;18.510;2024-03-23T06:17:23;0.60;;;0.40;;
20966;SDS011;10642;50.682;18.510;2024-03-23T06:19:49;1.47;;;1.10;;
20966;SDS011;10642;50.682;18.510;2024-03-23T06:22:15;0.97;;;0.87;;
20966;SDS011;10642;50.682;18.510;2024-03-23T06:24:41;3.70;;;1.27;;
20966;SDS011;10642;50.682;18.510;2024-03-23T06:27:07;1.50;;;0.63;;
20966;SDS011;10642;50.682;18.510;2024-03-23T06:29:32;1.50;;;0.83;;
20966;SDS011;10642;50.682;18.510;2024-03-23T06:31:58;1.70;;;1.00;;
20966;SDS011;10642;50.682;18.510;2024-03-23T06:34:26;0.63;;;0.60;;
20966;SDS011;10642;50.682;18.510;2024-03-23T06:36:52;2.53;;;1.33;;
20966;SDS011;10642;50.682;18.510;2024-03-23T06:39:18;0.73;;;0.50;;
20966;SDS011;10642;50.682;18.510;2024-03-23T06:41:53;0.87;;;0.73;;
20966;SDS011;10642;50.682;18.510;2024-03-23T06:44:20;1.03;;;0.93;;
20966;SDS011;10642;50.682;18.510;2024-03-23T06:46:46;3.03;;;1.27;;
20966;SDS011;10642;50.682;18.510;2024-03-23T06:49:13;0.63;;;0.50;;
20966;SDS011;10642;50.682;18.510;2024-03-23T06:51:39;3.60;;;0.90;;
20966;SDS011;10642;50.682;18.510;2024-03-23T06:54:05;0.63;;;0.37;;
20966;SDS011;10642;50.682;18.510;2024-03-23T06:56:31;6.43;;;0.80;;
20966;SDS011;10642;50.682;18.510;2024-03-23T06:58:57;1.50;;;0.83;;
20966;SDS011;10642;50.682;18.510;2024-03-23T07:01:23;1.63;;;0.80;;
20966;SDS011;10642;50.682;18.510;2024-03-23T07:03:48;8.90;;;1.87;;
20966;SDS011;10642;50.682;18.510;2024-03-23T07:06:14;0.73;;;0.50;;
20966;SDS011;10642;50.682;18.510;2024-03-23T07:08:40;5.57;;;1.80;;
20966;SDS011;10642;50.682;18.510;2024-03-23T07:11:06;4.87;;;1.27;;
20966;SDS011;10642;50.682;18.510;2024-03-23T07:13:32;1.47;;;1.27;;
20966;SDS011;10642;50.682;18.510;2024-03-23T07:15:58;3.37;;;1.03;;
20966;SDS011;10642;50.682;18.510;2024-03-23T07:18:25;1.03;;;0.50;;
20966;SDS011;10642;50.682;18.510;2024-03-23T07:20:52;1.83;;;0.90;;
20966;SDS011;10642;50.682;18.510;2024-03-23T07:23:18;1.30;;;0.80;;
20966;SDS011;10642;50.682;18.510;2024-03-23T07:25:44;0.30;;;0.30;;
20966;SDS011;10642;50.682;18.510;2024-03-23T07:28:09;0.97;;;0.60;;
20966;SDS011;10642;50.682;18.510;2024-03-23T07:30:36;1.63;;;1.00;;
20966;SDS011;10642;50.682;18.510;2024-03-23T07:33:01;1.03;;;0.60;;
20966;SDS011;10642;50.682;18.510;2024-03-23T07:35:27;1.13;;;0.63;;
20966;SDS011;10642;50.682;18.510;2024-03-23T07:37:53;0.67;;;0.60;;
20966;SDS011;10642;50.682;18.510;2024-03-23T07:40:19;1.13;;;0.73;;
20966;SDS011;10642;50.682;18.510;2024-03-23T07:42:45;1.57;;;0.80;;
20966;SDS011;10642;50.682;18.510;2024-03-23T07:45:11;1.03;;;0.67;;
20966;SDS011;10642;50.682;18.510;2024-03-23T07:47:37;0.53;;;0.47;;
20966;SDS011;10642;50.682;18.510;2024-03-23T07:50:03;0.33;;;0.33;;
20966;SDS011;10642;50.682;18.510;2024-03-23T07:52:29;1.63;;;1.07;;
20966;SDS011;10642;50.682;18.510;2024-03-23T07:54:55;0.40;;;0.40;;
20966;SDS011;10642;50.682;18.510;2024-03-23T07:57:21;0.70;;;0.60;;
20966;SDS011;10642;50.682;18.510;2024-03-23T07:59:47;2.20;;;1.70;;
20966;SDS011;10642;50.682;18.510;2024-03-23T08:02:13;1.10;;;0.60;;
20966;SDS011;10642;50.682;18.510;2024-03-23T08:04:38;1.20;;;0.80;;
20966;SDS011;10642;50.682;18.510;2024-03-23T08:07:04;4.07;;;1.67;;
20966;SDS011;10642;50.682;18.510;2024-03-23T08:09:30;4.63;;;1.27;;
20966;SDS011;10642;50.682;18.510;2024-03-23T08:11:56;1.17;;;0.70;;
20966;SDS011;10642;50.682;18.510;2024-03-23T08:14:22;5.93;;;1.57;;
20966;SDS011;10642;50.682;18.510;2024-03-23T08:16:48;2.33;;;0.73;;
20966;SDS011;10642;50.682;18.510;2024-03-23T08:19:15;0.70;;;0.50;;
20966;SDS011;10642;50.682;18.510;2024-03-23T08:21:41;2.97;;;1.13;;
20966;SDS011;10642;50.682;18.510;2024-03-23T08:24:07;2.47;;;1.47;;
20966;SDS011;10642;50.682;18.510;2024-03-23T08:26:33;5.30;;;2.43;;
20966;SDS011;10642;50.682;18.510;2024-03-23T08:28:59;1.00;;;0.93;;
20966;SDS011;10642;50.682;18.510;2024-03-23T08:31:25;1.50;;;1.17;;
20966;SDS011;10642;50.682;18.510;2024-03-23T08:33:52;1.87;;;1.10;;
20966;SDS011;10642;50.682;18.510;2024-03-23T08:36:18;2.20;;;0.80;;
20966;SDS011;10642;50.682;18.510;2024-03-23T08:38:43;2.27;;;1.10;;
20966;SDS011;10642;50.682;18.510;2024-03-23T08:41:10;1.07;;;0.57;;
20966;SDS011;10642;50.682;18.510;2024-03-23T08:43:37;0.40;;;0.40;;
20966;SDS011;10642;50.682;18.510;2024-03-23T08:46:09;1.27;;;0.93;;
20966;SDS011;10642;50.682;18.510;2024-03-23T08:48:36;2.30;;;1.23;;
20966;SDS011;10642;50.682;18.510;2024-03-23T08:51:02;0.47;;;0.20;;
20966;SDS011;10642;50.682;18.510;2024-03-23T08:53:29;1.10;;;0.87;;
20966;SDS011;10642;50.682;18.510;2024-03-23T08:55:58;0.33;;;0.30;;
20966;SDS011;10642;50.682;18.510;2024-03-23T08:58:26;0.43;;;0.40;;
20966;SDS011;10642;50.682;18.510;2024-03-23T09:00:52;1.03;;;0.73;;
20966;SDS011;10642;50.682;18.510;2024-03-23T09:03:18;1.67;;;1.33;;
20966;SDS011;10642;50.682;18.510;2024-03-23T09:05:44;2.93;;;0.73;;
20966;SDS011;10642;50.682;18.510;2024-03-23T09:08:10;0.83;;;0.63;;
20966;SDS011;10642;50.682;18.510;2024-03-23T09:10:39;2.80;;;1.80;;
20966;SDS011;10642;50.682;18.510;2024-03-23T09:13:06;2.50;;;1.10;;
20966;SDS011;10642;50.682;18.510;2024-03-23T09:15:33;0.43;;;0.43;;
20966;SDS011;10642;50.682;18.510;2024-03-23T09:17:59;0.60;;;0.60;;
20966;SDS011;10642;50.682;18.510;2024-03-23T09:20:26;0.83;;;0.77;;
20966;SDS011;10642;50.682;18.510;2024-03-23T09:22:52;3.50;;;0.60;;
20966;SDS011;10642;50.682;18.510;2024-03-23T09:25:17;1.70;;;0.60;;
20966;SDS011;10642;50.682;18.510;2024-03-23T09:27:45;0.73;;;0.73;;
20966;SDS011;10642;50.682;18.510;2024-03-23T09:30:11;0.73;;;0.50;;
20966;SDS011;10642;50.682;18.510;2024-03-23T09:32:38;0.60;;;0.33;;
20966;SDS011;10642;50.682;18.510;2024-03-23T09:35:04;1.40;;;0.73;;
20966;SDS011;10642;50.682;18.510;2024-03-23T09:37:30;0.53;;;0.53;;
20966;SDS011;10642;50.682;18.510;2024-03-23T09:39:56;1.07;;;0.30;;
20966;SDS011;10642;50.682;18.510;2024-03-23T09:42:22;0.77;;;0.73;;
20966;SDS011;10642;50.682;18.510;2024-03-23T09:44:48;1.00;;;0.90;;
20966;SDS011;10642;50.682;18.510;2024-03-23T09:47:14;0.53;;;0.53;;
20966;SDS011;10642;50.682;18.510;2024-03-23T09:49:40;1.27;;;1.07;;
20966;SDS011;10642;50.682;18.510;2024-03-23T09:52:06;0.50;;;0.50;;
20966;SDS011;10642;50.682;18.510;2024-03-23T09:54:32;1.07;;;0.40;;
20966;SDS011;10642;50.682;18.510;2024-03-23T09:56:58;0.87;;;0.80;;
20966;SDS011;10642;50.682;18.510;2024-03-23T09:59:24;0.83;;;0.50;;
20966;SDS011;10642;50.682;18.510;2024-03-23T10:01:52;0.10;;;0.10;;
20966;SDS011;10642;50.682;18.510;2024-03-23T10:07:13;4.00;;;1.33;;
20966;SDS011;10642;50.682;18.510;2024-03-23T10:09:39;0.77;;;0.77;;
20966;SDS011;10642;50.682;18.510;2024-03-23T10:12:09;3.20;;;1.60;;
20966;SDS011;10642;50.682;18.510;2024-03-23T10:14:36;0.80;;;0.57;;
20966;SDS011;10642;50.682;18.510;2024-03-23T10:17:11;0.57;;;0.43;;
20966;SDS011;10642;50.682;18.510;2024-03-23T10:19:41;1.80;;;0.93;;
20966;SDS011;10642;50.682;18.510;2024-03-23T10:22:08;2.27;;;1.20;;
20966;SDS011;10642;50.682;18.510;2024-03-23T10:24:34;0.73;;;0.53;;
20966;SDS011;10642;50.682;18.510;2024-03-23T10:27:00;0.33;;;0.33;;
20966;SDS011;10642;50.682;18.510;2024-03-23T10:29:26;0.90;;;0.70;;
20966;SDS011;10642;50.682;18.510;2024-03-23T10:31:58;2.43;;;1.23;;
20966;SDS011;10642;50.682;18.510;2024-03-23T10:34:32;0.40;;;0.40;;
20966;SDS011;10642;50.682;18.510;2024-03-23T10:36:58;0.87;;;0.87;;
20966;SDS011;10642;50.682;18.510;2024-03-23T10:39:25;1.57;;;1.00;;
20966;SDS011;10642;50.682;18.510;2024-03-23T10:41:51;2.33;;;0.77;;
20966;SDS011;10642;50.682;18.510;2024-03-23T10:44:19;1.10;;;0.50;;
20966;SDS011;10642;50.682;18.510;2024-03-23T10:46:45;1.30;;;1.07;;
20966;SDS011;10642;50.682;18.510;2024-03-23T10:49:11;1.27;;;0.30;;
20966;SDS011;10642;50.682;18.510;2024-03-23T10:51:37;1.20;;;0.60;;
20966;SDS011;10642;50.682;18.510;2024-03-23T10:54:06;0.40;;;0.20;;
20966;SDS011;10642;50.682;18.510;2024-03-23T10:56:32;0.30;;;0.30;;
20966;SDS011;10642;50.682;18.510;2024-03-23T10:59:01;0.60;;;0.23;;
20966;SDS011;10642;50.682;18.510;2024-03-23T11:01:28;0.30;;;0.20;;
20966;SDS011;10642;50.682;18.510;2024-03-23T11:03:54;0.57;;;0.57;;
20966;SDS011;10642;50.682;18.510;2024-03-23T11:06:53;2.83;;;0.70;;
20966;SDS011;10642;50.682;18.510;2024-03-23T11:11:57;1.00;;;0.93;;
20966;SDS011;10642;50.682;18.510;2024-03-23T11:14:22;0.87;;;0.30;;
20966;SDS011;10642;50.682;18.510;2024-03-23T11:17:08;1.83;;;0.53;;
20966;SDS011;10642;50.682;18.510;2024-03-23T11:19:37;0.33;;;0.27;;
20966;SDS011;10642;50.682;18.510;2024-03-23T11:22:03;1.10;;;0.47;;
20966;SDS011;10642;50.682;18.510;2024-03-23T11:24:30;0.20;;;0.20;;
20966;SDS011;10642;50.682;18.510;2024-03-23T11:26:56;1.70;;;0.33;;
20966;SDS011;10642;50.682;18.510;2024-03-23T11:29:26;0.87;;;0.87;;
20966;SDS011;10642;50.682;18.510;2024-03-23T11:31:52;1.50;;;0.47;;
20966;SDS011;10642;50.682;18.510;2024-03-23T11:34:19;0.83;;;0.33;;
20966;SDS011;10642;50.682;18.510;2024-03-23T11:36:45;6.33;;;0.67;;
20966;SDS011;10642;50.682;18.510;2024-03-23T11:39:15;0.50;;;0.50;;
20966;SDS011;10642;50.682;18.510;2024-03-23T11:41:46;2.53;;;0.73;;
20966;SDS011;10642;50.682;18.510;2024-03-23T11:44:18;0.73;;;0.60;;
20966;SDS011;10642;50.682;18.510;2024-03-23T11:46:44;1.23;;;1.13;;
20966;SDS011;10642;50.682;18.510;2024-03-23T11:49:26;0.27;;;0.27;;
20966;SDS011;10642;50.682;18.510;2024-03-23T11:51:53;0.83;;;0.47;;
20966;SDS011;10642;50.682;18.510;2024-03-23T11:54:22;1.13;;;0.53;;
20966;SDS011;10642;50.682;18.510;2024-03-23T12:02:16;2.40;;;1.50;;
20966;SDS011;10642;50.682;18.510;2024-03-23T12:04:44;0.20;;;0.10;;
20966;SDS011;10642;50.682;18.510;2024-03-23T12:09:36;1.33;;;0.30;;
20966;SDS011;10642;50.682;18.510;2024-03-23T12:12:06;0.10;;;0.10;;
20966;SDS011;10642;50.682;18.510;2024-03-23T12:14:32;0.33;;;0.33;;
20966;SDS011;10642;50.682;18.510;2024-03-23T12:17:14;1.57;;;0.40;;
20966;SDS011;10642;50.682;18.510;2024-03-23T12:19:40;0.20;;;0.20;;
20966;SDS011;10642;50.682;18.510;2024-03-23T12:22:11;0.40;;;0.40;;
20966;SDS011;10642;50.682;18.510;2024-03-23T12:24:37;0.67;;;0.37;;
20966;SDS011;10642;50.682;18.510;2024-03-23T12:27:04;0.60;;;0.53;;
20966;SDS011;10642;50.682;18.510;2024-03-23T12:29:34;1.20;;;0.80;;
20966;SDS011;10642;50.682;18.510;2024-03-23T12:32:00;0.30;;;0.30;;
20966;SDS011;10642;50.682;18.510;2024-03-23T12:34:26;0.50;;;0.50;;
20966;SDS011;10642;50.682;18.510;2024-03-23T12:36:52;0.10;;;0.10;;
20966;SDS011;10642;50.682;18.510;2024-03-23T12:39:18;0.23;;;0.23;;
20966;SDS011;10642;50.682;18.510;2024-03-23T12:41:46;0.20;;;0.20;;
20966;SDS011;10642;50.682;18.510;2024-03-23T12:44:12;0.10;;;0.10;;
20966;SDS011;10642;50.682;18.510;2024-03-23T12:46:39;0.17;;;0.17;;
20966;SDS011;10642;50.682;18.510;2024-03-23T12:49:05;0.20;;;0.20;;
20966;SDS011;10642;50.682;18.510;2024-03-23T12:51:32;0.20;;;0.20;;
20966;SDS011;10642;50.682;18.510;2024-03-23T12:53:58;0.93;;;0.93;;
20966;SDS011;10642;50.682;18.510;2024-03-23T12:56:24;0.30;;;0.30;;
20966;SDS011;10642;50.682;18.510;2024-03-23T12:58:50;0.37;;;0.23;;
20966;SDS011;10642;50.682;18.510;2024-03-23T13:01:18;0.30;;;0.23;;
20966;SDS011;10642;50.682;18.510;2024-03-23T13:03:47;13.60;;;10.77;;
20966;SDS011;10642;50.682;18.510;2024-03-23T13:06:14;19.17;;;12.60;;
20966;SDS011;10642;50.682;18.510;2024-03-23T13:08:40;17.47;;;13.13;;
20966;SDS011;10642;50.682;18.510;2024-03-23T13:11:07;19.97;;;13.50;;
20966;SDS011;10642;50.682;18.510;2024-03-23T13:13:34;22.93;;;14.33;;
20966;SDS011;10642;50.682;18.510;2024-03-23T13:16:00;17.93;;;13.60;;
20966;SDS011;10642;50.682;18.510;2024-03-23T13:18:26;18.00;;;13.43;;
20966;SDS011;10642;50.682;18.510;2024-03-23T13:20:52;20.80;;;14.07;;
20966;SDS011;10642;50.682;18.510;2024-03-23T13:23:19;19.80;;;13.90;;
20966;SDS011;10642;50.682;18.510;2024-03-23T13:25:52;20.27;;;14.53;;
20966;SDS011;10642;50.682;18.510;2024-03-23T13:28:19;16.07;;;12.20;;
20966;SDS011;10642;50.682;18.510;2024-03-23T13:30:55;15.17;;;11.03;;
20966;SDS011;10642;50.682;18.510;2024-03-23T13:33:21;17.77;;;10.83;;
20966;SDS011;10642;50.682;18.510;2024-03-23T13:35:53;20.90;;;13.50;;
20966;SDS011;10642;50.682;18.510;2024-03-23T13:38:20;17.83;;;11.30;;
20966;SDS011;10642;50.682;18.510;2024-03-23T13:40:59;16.20;;;10.80;;
20966;SDS011;10642;50.682;18.510;2024-03-23T13:43:26;14.40;;;10.33;;
20966;SDS011;10642;50.682;18.510;2024-03-23T13:45:56;20.90;;;12.33;;
20966;SDS011;10642;50.682;18.510;2024-03-23T13:48:26;17.63;;;10.30;;
20966;SDS011;10642;50.682;18.510;2024-03-23T14:07:09;11.97;;;5.87;;
20966;SDS011;10642;50.682;18.510;2024-03-23T14:09:35;10.37;;;6.77;;
20966;SDS011;10642;50.682;18.510;2024-03-23T14:12:00;10.43;;;6.60;;
20966;SDS011;10642;50.682;18.510;2024-03-23T14:14:26;11.77;;;7.23;;
20966;SDS011;10642;50.682;18.510;2024-03-23T14:16:53;12.33;;;8.10;;
20966;SDS011;10642;50.682;18.510;2024-03-23T14:19:19;9.97;;;6.63;;
20966;SDS011;10642;50.682;18.510;2024-03-23T14:21:45;9.60;;;6.57;;
20966;SDS011;10642;50.682;18.510;2024-03-23T14:24:11;7.17;;;5.20;;
20966;SDS011;10642;50.682;18.510;2024-03-23T14:26:37;10.57;;;6.20;;
20966;SDS011;10642;50.682;18.510;2024-03-23T14:29:04;8.57;;;5.27;;
20966;SDS011;10642;50.682;18.510;2024-03-23T14:31:30;10.93;;;5.30;;
20966;SDS011;10642;50.682;18.510;2024-03-23T14:33:56;10.23;;;5.97;;
20966;SDS011;10642;50.682;18.510;2024-03-23T14:36:22;9.67;;;5.90;;
20966;SDS011;10642;50.682;18.510;2024-03-23T14:38:48;7.63;;;6.10;;
20966;SDS011;10642;50.682;18.510;2024-03-23T14:41:14;10.30;;;6.43;;
20966;SDS011;10642;50.682;18.510;2024-03-23T14:43:40;10.67;;;7.23;;
20966;SDS011;10642;50.682;18.510;2024-03-23T14:46:16;12.20;;;6.93;;
20966;SDS011;10642;50.682;18.510;2024-03-23T14:48:42;7.97;;;5.20;;
20966;SDS011;10642;50.682;18.510;2024-03-23T14:51:08;13.07;;;7.07;;
20966;SDS011;10642;50.682;18.510;2024-03-23T14:53:35;9.80;;;6.30;;
20966;SDS011;10642;50.682;18.510;2024-03-23T14:56:01;7.77;;;4.93;;
20966;SDS011;10642;50.682;18.510;2024-03-23T14:58:28;14.67;;;5.60;;
20966;SDS011;10642;50.682;18.510;2024-03-23T15:00:59;13.30;;;6.20;;
20966;SDS011;10642;50.682;18.510;2024-03-23T15:03:25;11.70;;;6.53;;
20966;SDS011;10642;50.682;18.510;2024-03-23T15:05:52;12.17;;;7.20;;
20966;SDS011;10642;50.682;18.510;2024-03-23T15:08:18;10.60;;;7.20;;
20966;SDS011;10642;50.682;18.510;2024-03-23T15:10:44;13.70;;;7.80;;
20966;SDS011;10642;50.682;18.510;2024-03-23T15:13:10;10.27;;;7.67;;
20966;SDS011;10642;50.682;18.510;2024-03-23T15:15:39;10.90;;;9.27;;
20966;SDS011;10642;50.682;18.510;2024-03-23T15:18:07;11.87;;;10.60;;
20966;SDS011;10642;50.682;18.510;2024-03-23T15:20:33;11.63;;;10.43;;
20966;SDS011;10642;50.682;18.510;2024-03-23T15:23:02;15.27;;;13.67;;
20966;SDS011;10642;50.682;18.510;2024-03-23T15:25:28;13.97;;;8.93;;
20966;SDS011;10642;50.682;18.510;2024-03-23T15:40:34;9.47;;;6.80;;
20966;SDS011;10642;50.682;18.510;2024-03-23T15:43:00;10.83;;;9.33;;
20966;SDS011;10642;50.682;18.510;2024-03-23T15:45:26;7.03;;;5.60;;
20966;SDS011;10642;50.682;18.510;2024-03-23T15:47:52;8.17;;;5.53;;
20966;SDS011;10642;50.682;18.510;2024-03-23T15:50:18;7.20;;;5.40;;
20966;SDS011;10642;50.682;18.510;2024-03-23T15:52:44;8.90;;;5.60;;
20966;SDS011;10642;50.682;18.510;2024-03-23T15:55:10;11.07;;;7.33;;
20966;SDS011;10642;50.682;18.510;2024-03-23T15:57:36;8.97;;;6.10;;
20966;SDS011;10642;50.682;18.510;2024-03-23T16:00:02;8.53;;;5.37;;
20966;SDS011;10642;50.682;18.510;2024-03-23T16:17:11;3.87;;;2.97;;
20966;SDS011;10642;50.682;18.510;2024-03-23T16:19:37;6.60;;;4.00;;